Time;durP1;ratioP1;P1;durP2;ratioP2;P2;SDS_P1;SDS_P2;PMS_P1;PMS_P2;Temp;Humidity;BMP_temperature;BMP_pressure;BME280_temperature;BME280_humidity;BME280_pressure;Samples;Min_cycle;Max_cycle;Signal;HPM_P1;HPM_P2
2022/06/18 00:01:35;;;;;;;6.93;2.90;;;18.60;99.90;;;;;;5074614;28;20048;-69
2022/06/18 00:04:10;;;;;;;5.18;2.70;;;18.70;99.90;;;;;;5056798;28;20055;-69
2022/06/18 00:06:56;;;;;;;5.05;3.45;;;18.70;99.90;;;;;;5056873;28;20097;-69
2022/06/18 00:09:33;;;;;;;4.47;2.20;;;18.70;99.90;;;;;;5074315;28;20048;-69
2022/06/18 00:15:11;;;;;;;8.07;3.05;;;18.70;99.90;;;;;;5074307;28;20132;-69
2022/06/18 00:17:36;;;;;;;4.90;2.88;;;18.60;99.90;;;;;;5074006;28;20083;-69
2022/06/18 00:20:02;;;;;;;4.80;2.85;;;18.60;99.90;;;;;;5056640;28;20072;-69
2022/06/18 00:22:29;;;;;;;4.63;2.78;;;18.60;99.90;;;;;;5056809;28;20052;-69
2022/06/18 00:24:54;;;;;;;6.25;2.88;;;18.60;99.90;;;;;;5074321;28;20095;-69
2022/06/18 00:27:21;;;;;;;9.88;2.80;;;18.60;99.90;;;;;;5056531;28;20068;-69
2022/06/18 00:29:48;;;;;;;4.95;2.70;;;18.50;99.90;;;;;;5056287;28;20456;-69
2022/06/18 00:32:14;;;;;;;5.80;2.45;;;18.60;99.90;;;;;;5075479;28;20127;-69
2022/06/18 00:34:40;;;;;;;9.70;2.80;;;18.50;99.90;;;;;;5060127;28;20080;-69
2022/06/18 00:37:06;;;;;;;7.05;3.25;;;18.50;99.90;;;;;;5059811;28;20049;-70
2022/06/18 00:39:32;;;;;;;4.80;2.70;;;18.40;99.90;;;;;;5077565;28;20131;-69
2022/06/18 00:42:05;;;;;;;4.07;2.60;;;18.40;99.90;;;;;;5060333;28;20059;-69
2022/06/18 00:44:33;;;;;;;3.85;2.70;;;18.50;99.90;;;;;;5059930;28;20174;-69
2022/06/18 00:47:31;;;;;;;5.65;2.60;;;18.40;99.90;;;;;;5059965;28;20047;-69
2022/06/18 00:50:19;;;;;;;4.78;2.83;;;18.40;99.90;;;;;;5059555;28;20041;-69
2022/06/18 00:52:55;;;;;;;5.45;2.55;;;18.50;99.90;;;;;;5059643;28;20098;-69
2022/06/18 00:55:35;;;;;;;4.15;2.63;;;18.50;99.90;;;;;;5059537;28;20067;-69
2022/06/18 00:58:12;;;;;;;5.22;3.05;;;18.50;99.90;;;;;;5077275;28;20353;-70
2022/06/18 01:00:40;;;;;;;6.00;2.88;;;18.50;99.90;;;;;;5059431;28;20464;-69
2022/06/18 01:03:21;;;;;;;5.03;2.60;;;18.40;99.90;;;;;;5059556;28;20540;-69
2022/06/18 01:05:46;;;;;;;3.70;2.60;;;18.40;99.90;;;;;;5042839;28;20052;-69
2022/06/18 01:08:16;;;;;;;4.68;3.03;;;18.40;99.90;;;;;;5077182;28;20051;-69
2022/06/18 01:10:48;;;;;;;6.93;2.67;;;18.30;99.90;;;;;;5077950;28;20463;-68
2022/06/18 01:13:16;;;;;;;7.35;2.80;;;18.40;99.90;;;;;;5059304;28;20055;-68
2022/06/18 01:15:44;;;;;;;5.57;2.97;;;18.40;99.90;;;;;;5060078;28;20044;-69
2022/06/18 01:18:10;;;;;;;5.65;2.92;;;18.30;99.90;;;;;;5059251;28;20158;-69
2022/06/18 01:20:51;;;;;;;5.65;2.88;;;18.40;99.90;;;;;;5059201;28;20044;-69
2022/06/18 01:23:40;;;;;;;7.55;3.13;;;18.50;99.90;;;;;;5059295;28;20052;-69
2022/06/18 01:26:06;;;;;;;4.65;2.90;;;18.40;99.90;;;;;;5076406;28;20053;-69
2022/06/18 01:28:32;;;;;;;4.45;2.85;;;18.40;99.90;;;;;;5059324;28;20184;-69
2022/06/18 01:30:57;;;;;;;3.22;2.40;;;18.40;99.90;;;;;;5076579;28;20131;-69
2022/06/18 01:33:24;;;;;;;19.85;4.68;;;18.40;99.90;;;;;;5059040;28;20044;-69
2022/06/18 01:35:52;;;;;;;21.77;3.70;;;18.30;99.90;;;;;;5058610;28;20129;-69
2022/06/18 01:38:20;;;;;;;8.13;3.20;;;18.20;99.90;;;;;;5060131;28;21242;-69
2022/06/18 01:41:49;;;;;;;5.35;2.90;;;18.30;99.90;;;;;;5089380;28;20048;-69
2022/06/18 01:43:46;;;;;;;5.88;2.90;;;18.20;99.90;;;;;;5095981;28;20056;-69
2022/06/18 01:46:12;;;;;;;5.28;2.97;;;18.20;99.90;;;;;;5061984;28;20152;-69
2022/06/18 01:48:41;;;;;;;5.97;3.35;;;18.20;99.90;;;;;;5078440;28;20162;-69
2022/06/18 01:51:17;;;;;;;4.68;3.25;;;18.20;99.90;;;;;;5097268;28;20040;-69
2022/06/18 01:53:50;;;;;;;5.88;2.92;;;18.20;99.90;;;;;;5095679;28;20047;-69
2022/06/18 01:56:23;;;;;;;7.68;3.90;;;18.20;99.90;;;;;;5077914;28;20070;-69
2022/06/18 01:58:55;;;;;;;4.72;3.03;;;18.20;99.90;;;;;;5096346;28;20052;-69
2022/06/18 02:01:27;;;;;;;5.15;3.30;;;18.20;99.90;;;;;;5079122;28;20102;-69
2022/06/18 02:03:56;;;;;;;6.75;3.55;;;18.20;99.90;;;;;;5078081;28;20136;-69
2022/06/18 02:06:22;;;;;;;11.95;4.20;;;18.20;99.90;;;;;;5096386;28;20040;-69
2022/06/18 02:08:48;;;;;;;8.65;3.55;;;18.20;99.90;;;;;;5096228;28;20463;-69
2022/06/18 02:11:17;;;;;;;5.05;3.47;;;18.20;99.90;;;;;;5087626;28;20033;-69
2022/06/18 02:13:49;;;;;;;7.88;4.07;;;18.10;99.90;;;;;;5058494;28;20052;-69
2022/06/18 02:16:20;;;;;;;4.80;3.28;;;18.10;99.90;;;;;;5075731;28;20056;-69
2022/06/18 02:18:48;;;;;;;21.83;4.22;;;18.10;99.90;;;;;;5075888;28;20045;-69
2022/06/18 02:21:16;;;;;;;8.73;3.88;;;18.10;99.90;;;;;;5075420;28;20052;-69
2022/06/18 02:23:42;;;;;;;6.18;4.05;;;18.20;99.90;;;;;;5076334;28;20364;-69
2022/06/18 02:26:08;;;;;;;5.68;3.40;;;18.20;99.90;;;;;;5086188;28;20115;-69
2022/06/18 02:28:39;;;;;;;6.40;3.28;;;18.20;99.90;;;;;;5058002;28;20097;-69
2022/06/18 02:31:05;;;;;;;9.00;5.10;;;18.30;99.90;;;;;;5057881;28;20063;-69
2022/06/18 02:33:43;;;;;;;7.18;4.18;;;18.30;99.90;;;;;;5075546;28;20098;-68
2022/06/18 02:36:28;;;;;;;5.03;3.58;;;18.20;99.90;;;;;;5075300;28;20044;-69
2022/06/18 02:39:23;;;;;;;9.10;3.75;;;18.20;99.90;;;;;;5058470;28;20125;-69
2022/06/18 02:41:49;;;;;;;9.93;4.82;;;18.20;99.90;;;;;;5048786;28;20056;-69
2022/06/18 02:44:15;;;;;;;5.55;3.63;;;18.20;99.90;;;;;;5057353;28;20140;-69
2022/06/18 02:46:41;;;;;;;8.90;4.00;;;18.10;99.90;;;;;;5057555;28;20044;-69
2022/06/18 02:49:09;;;;;;;5.75;3.70;;;18.10;99.90;;;;;;5057205;28;20048;-69
2022/06/18 02:51:40;;;;;;;6.93;3.92;;;18.10;99.90;;;;;;5075187;28;20059;-69
2022/06/18 02:54:06;;;;;;;6.90;4.18;;;18.10;99.90;;;;;;5040083;28;20358;-69
2022/06/18 02:56:32;;;;;;;5.65;3.40;;;18.10;99.90;;;;;;5069655;28;20373;-69
2022/06/18 02:58:57;;;;;;;8.02;4.28;;;18.00;99.90;;;;;;5075068;28;20049;-69
2022/06/18 03:01:25;;;;;;;6.30;4.32;;;18.00;99.90;;;;;;5074736;28;20044;-69
2022/06/18 03:03:54;;;;;;;6.22;4.10;;;17.90;99.90;;;;;;5074879;28;20055;-69
2022/06/18 03:06:24;;;;;;;6.10;3.70;;;17.90;99.90;;;;;;5074848;28;20056;-69
2022/06/18 03:08:50;;;;;;;8.68;4.38;;;17.90;99.90;;;;;;5057120;28;20040;-69
2022/06/18 03:14:04;;;;;;;8.10;3.83;;;17.80;99.90;;;;;;5074717;28;20049;-69
2022/06/18 03:16:30;;;;;;;6.15;4.35;;;17.80;99.90;;;;;;5057354;28;20441;-69
2022/06/18 03:18:58;;;;;;;5.95;4.30;;;17.80;99.90;;;;;;5074761;28;20369;-68
2022/06/18 03:21:41;;;;;;;6.88;4.07;;;17.80;99.90;;;;;;5074886;28;20051;-69
2022/06/18 03:24:08;;;;;;;13.23;4.90;;;17.80;99.90;;;;;;5064362;28;20067;-70
2022/06/18 03:26:37;;;;;;;10.23;4.80;;;17.90;99.90;;;;;;5074648;28;20140;-69
2022/06/18 03:29:04;;;;;;;8.07;4.43;;;17.90;99.90;;;;;;5073429;28;20052;-70
2022/06/18 03:31:31;;;;;;;8.85;5.13;;;17.90;99.90;;;;;;5078675;28;20044;-67
2022/06/18 03:33:57;;;;;;;7.82;4.45;;;17.90;99.90;;;;;;5080377;28;20068;-67
2022/06/18 03:36:23;;;;;;;6.95;4.53;;;17.90;99.90;;;;;;5096095;28;20509;-67
2022/06/18 03:38:50;;;;;;;7.30;4.72;;;17.90;99.90;;;;;;5080165;28;20119;-67
2022/06/18 03:41:17;;;;;;;9.15;4.53;;;17.90;99.90;;;;;;5074059;28;20048;-67
2022/06/18 03:43:43;;;;;;;7.32;4.22;;;17.90;99.90;;;;;;5056715;28;20048;-67
2022/06/18 03:46:15;;;;;;;7.82;4.55;;;17.80;99.90;;;;;;5055945;28;20118;-67
2022/06/18 03:48:54;;;;;;;8.75;4.70;;;18.00;99.90;;;;;;5057003;28;20086;-67
2022/06/18 03:51:20;;;;;;;9.45;5.05;;;18.00;99.90;;;;;;5056916;28;20049;-67
2022/06/18 03:53:46;;;;;;;9.50;5.60;;;18.10;99.90;;;;;;5090453;28;20042;-68
2022/06/18 03:56:14;;;;;;;11.93;5.47;;;18.10;99.90;;;;;;5096668;28;20131;-69
2022/06/18 03:58:41;;;;;;;11.98;6.00;;;18.10;99.90;;;;;;5097413;28;20066;-69
2022/06/18 04:01:08;;;;;;;11.55;5.40;;;18.10;99.90;;;;;;5114988;28;20047;-69
2022/06/18 04:03:34;;;;;;;9.48;5.95;;;18.20;99.90;;;;;;5096782;28;20499;-69
2022/06/18 04:05:59;;;;;;;10.35;6.57;;;18.30;99.90;;;;;;5115788;28;20082;-69
2022/06/18 04:08:25;;;;;;;13.75;7.13;;;18.40;99.90;;;;;;5082914;28;20146;-69
2022/06/18 04:10:50;;;;;;;12.48;6.55;;;18.40;99.90;;;;;;5061080;28;20052;-69
2022/06/18 04:13:16;;;;;;;17.52;7.40;;;18.40;99.90;;;;;;5060111;28;20079;-69
2022/06/18 04:15:42;;;;;;;12.77;7.10;;;18.50;99.90;;;;;;5060305;28;20068;-69
2022/06/18 04:18:12;;;;;;;10.32;6.60;;;18.50;99.90;;;;;;5060515;28;20060;-69
2022/06/18 04:20:38;;;;;;;11.45;6.88;;;18.50;99.90;;;;;;5060050;28;20415;-69
2022/06/18 04:23:05;;;;;;;12.88;6.60;;;18.60;99.90;;;;;;5077240;28;20048;-69
2022/06/18 04:25:31;;;;;;;15.60;8.05;;;18.60;99.90;;;;;;5077792;28;20144;-69
2022/06/18 04:27:57;;;;;;;13.82;6.60;;;18.70;99.90;;;;;;5059931;28;20056;-69
2022/06/18 04:30:26;;;;;;;12.82;7.03;;;18.70;99.90;;;;;;5078006;28;20048;-69
2022/06/18 04:32:52;;;;;;;12.77;6.57;;;18.80;99.90;;;;;;5060102;28;20084;-69
2022/06/18 04:35:18;;;;;;;15.38;7.43;;;18.80;99.90;;;;;;5077889;28;20052;-69
2022/06/18 04:37:44;;;;;;;17.48;7.43;;;18.90;99.90;;;;;;5059554;28;20040;-69
2022/06/18 04:40:14;;;;;;;16.38;7.55;;;19.00;99.90;;;;;;5060113;28;20131;-69
2022/06/18 04:42:40;;;;;;;14.65;6.90;;;19.00;99.90;;;;;;5060470;28;20087;-69
2022/06/18 04:45:06;;;;;;;12.63;7.50;;;19.10;99.90;;;;;;5059557;28;20076;-69
2022/06/18 04:47:32;;;;;;;12.60;8.88;;;19.20;99.90;;;;;;5059775;28;20419;-70
2022/06/18 04:49:58;;;;;;;14.73;7.20;;;19.40;99.90;;;;;;5059659;28;20052;-69
2022/06/18 04:52:24;;;;;;;12.35;7.53;;;19.50;99.90;;;;;;5077055;28;20361;-69
2022/06/18 04:54:52;;;;;;;15.32;8.13;;;19.60;99.90;;;;;;5059823;28;20144;-69
2022/06/18 04:57:19;;;;;;;13.45;7.43;;;19.60;99.90;;;;;;5077313;28;20041;-69
2022/06/18 04:59:45;;;;;;;15.43;7.07;;;19.60;99.90;;;;;;5077432;28;20041;-69
2022/06/18 05:02:20;;;;;;;13.52;7.65;;;19.70;99.90;;;;;;5059565;28;20044;-69
2022/06/18 05:04:45;;;;;;;11.55;7.60;;;19.70;99.90;;;;;;5077229;28;20052;-69
2022/06/18 05:07:11;;;;;;;16.10;7.85;;;19.80;99.90;;;;;;5042752;28;20128;-69
2022/06/18 05:09:36;;;;;;;12.25;8.07;;;19.90;99.90;;;;;;5059391;28;20453;-69
2022/06/18 05:12:02;;;;;;;16.35;8.10;;;20.00;99.90;;;;;;5076510;28;20052;-69
2022/06/18 05:14:28;;;;;;;14.25;8.25;;;20.50;99.90;;;;;;5059449;28;20102;-69
2022/06/18 05:16:54;;;;;;;14.65;7.43;;;21.20;99.90;;;;;;5076152;28;20127;-69
2022/06/18 05:19:24;;;;;;;17.27;7.55;;;22.10;99.90;;;;;;5077301;28;20425;-70
2022/06/18 05:21:50;;;;;;;17.00;7.82;;;22.80;99.90;;;;;;5067528;28;20066;-70
2022/06/18 05:24:16;;;;;;;17.23;7.60;;;23.30;99.90;;;;;;5070061;28;20358;-70
2022/06/18 05:26:46;;;;;;;14.40;7.30;;;23.90;99.90;;;;;;5058959;28;20051;-70
2022/06/18 05:29:12;;;;;;;15.70;7.20;;;24.40;99.90;;;;;;5072348;28;20397;-71
2022/06/18 05:31:37;;;;;;;14.60;7.13;;;25.00;99.90;;;;;;5096532;28;20090;-70
2022/06/18 05:34:03;;;;;;;15.50;6.82;;;25.40;99.90;;;;;;5096322;28;20040;-70
2022/06/18 05:36:29;;;;;;;11.15;6.05;;;25.50;99.90;;;;;;5096557;28;20048;-70
2022/06/18 05:38:57;;;;;;;11.25;6.18;;;25.90;99.90;;;;;;5097051;28;20044;-70
2022/06/18 05:41:23;;;;;;;21.00;6.65;;;26.20;99.90;;;;;;5075700;28;20078;-70
2022/06/18 05:43:49;;;;;;;26.42;6.38;;;26.20;99.90;;;;;;5058562;28;20044;-70
2022/06/18 05:46:15;;;;;;;15.93;6.20;;;26.40;99.90;;;;;;5076550;28;20048;-70
2022/06/18 05:48:42;;;;;;;16.17;5.90;;;26.40;99.90;;;;;;5076115;28;20047;-70
2022/06/18 05:51:07;;;;;;;12.80;6.18;;;26.50;99.90;;;;;;5073584;28;20082;-69
2022/06/18 05:53:33;;;;;;;9.00;5.30;;;26.80;99.90;;;;;;5079677;28;20091;-69
2022/06/18 05:55:59;;;;;;;9.45;5.15;;;27.00;99.90;;;;;;5045847;28;20122;-69
2022/06/18 05:58:24;;;;;;;13.55;5.65;;;27.20;99.10;;;;;;5056025;28;20059;-69
2022/06/18 06:00:50;;;;;;;11.90;5.53;;;27.00;98.90;;;;;;5039152;28;20149;-71
2022/06/18 06:03:16;;;;;;;13.88;5.63;;;27.20;99.30;;;;;;5038197;28;20381;-70
2022/06/18 06:05:41;;;;;;;10.48;5.60;;;27.50;98.50;;;;;;5056212;28;20068;-70
2022/06/18 06:08:10;;;;;;;9.27;5.53;;;27.90;98.40;;;;;;5067398;28;20047;-70
2022/06/18 06:13:20;;;;;;;7.90;4.25;;;28.20;97.00;;;;;;5075692;28;20084;-69
2022/06/18 06:15:47;;;;;;;12.88;6.05;;;28.40;96.60;;;;;;5075704;28;20072;-70
2022/06/18 06:18:15;;;;;;;9.90;4.80;;;28.50;96.70;;;;;;5062532;28;20412;-71
2022/06/18 06:20:45;;;;;;;17.00;5.28;;;28.60;96.60;;;;;;5046314;28;20060;-70
2022/06/18 06:23:11;;;;;;;13.55;4.68;;;29.00;96.20;;;;;;5053055;28;20137;-70
2022/06/18 06:25:39;;;;;;;10.35;4.68;;;29.00;95.40;;;;;;5075390;28;20060;-70
2022/06/18 06:28:06;;;;;;;12.48;4.15;;;29.20;95.90;;;;;;5075223;28;20421;-69
2022/06/18 06:30:31;;;;;;;12.95;4.72;;;29.10;95.70;;;;;;5075074;28;20049;-70
2022/06/18 06:32:57;;;;;;;10.52;4.93;;;29.30;95.50;;;;;;5074786;28;20044;-70
2022/06/18 06:35:22;;;;;;;13.55;4.65;;;29.30;94.60;;;;;;5075737;28;20052;-69
2022/06/18 06:37:48;;;;;;;9.75;4.40;;;29.10;94.60;;;;;;5058058;28;20365;-70
2022/06/18 06:40:14;;;;;;;8.30;4.28;;;28.80;95.60;;;;;;5057704;28;20055;-70
2022/06/18 06:42:45;;;;;;;13.52;4.72;;;29.20;95.00;;;;;;5057111;28;20125;-68
2022/06/18 06:45:13;;;;;;;9.63;4.90;;;29.80;94.70;;;;;;5057548;28;20109;-68
2022/06/18 06:47:39;;;;;;;13.35;4.53;;;30.00;94.10;;;;;;5050921;28;20045;-69
2022/06/18 06:50:05;;;;;;;12.27;4.47;;;30.00;93.10;;;;;;5064125;28;20063;-69
2022/06/18 06:52:30;;;;;;;13.30;3.72;;;30.10;93.60;;;;;;5056934;28;20089;-69
2022/06/18 06:57:43;;;;;;;9.07;3.53;;;30.00;93.30;;;;;;5077137;28;20048;-70
2022/06/18 07:00:13;;;;;;;10.07;3.10;;;30.20;92.90;;;;;;5077640;28;20054;-70
2022/06/18 07:02:39;;;;;;;6.68;3.17;;;30.50;92.80;;;;;;5077038;28;20051;-70
2022/06/18 07:05:05;;;;;;;10.57;3.40;;;30.70;92.80;;;;;;5073759;28;20123;-69
2022/06/18 07:07:30;;;;;;;35.92;3.20;;;30.80;92.40;;;;;;5073917;28;20059;-70
2022/06/18 07:09:56;;;;;;;5.65;2.63;;;31.00;92.10;;;;;;5057595;28;20048;-69
2022/06/18 07:12:22;;;;;;;13.82;2.92;;;31.50;91.60;;;;;;5074467;28;20457;-70
2022/06/18 07:14:48;;;;;;;10.00;3.78;;;31.40;90.90;;;;;;5089242;28;20069;-70
2022/06/18 07:17:17;;;;;;;4.75;2.33;;;31.50;91.40;;;;;;5075946;28;20048;-69
2022/06/18 07:19:43;;;;;;;10.85;2.53;;;31.60;90.90;;;;;;5073259;28;20048;-69
2022/06/18 07:22:10;;;;;;;11.57;3.03;;;31.80;91.30;;;;;;5076762;28;20055;-69
2022/06/18 07:24:37;;;;;;;6.43;2.85;;;31.90;90.90;;;;;;5094921;28;20044;-70
2022/06/18 07:27:04;;;;;;;6.78;2.67;;;31.50;90.60;;;;;;5062733;28;20135;-69
2022/06/18 07:29:29;;;;;;;6.07;2.50;;;31.20;91.00;;;;;;5057246;28;20052;-69
2022/06/18 07:32:03;;;;;;;9.60;2.63;;;31.40;91.00;;;;;;5057298;28;20102;-69
2022/06/18 07:34:28;;;;;;;9.55;3.08;;;31.60;90.60;;;;;;5074489;28;20422;-69
2022/06/18 07:36:54;;;;;;;8.95;2.63;;;31.70;90.80;;;;;;5073805;28;20123;-69
2022/06/18 07:39:20;;;;;;;5.50;2.58;;;32.00;90.50;;;;;;5074111;28;20052;-69
2022/06/18 07:41:52;;;;;;;6.82;2.17;;;32.00;89.80;;;;;;5060183;28;20060;-69
2022/06/18 07:44:18;;;;;;;6.63;2.35;;;31.90;90.20;;;;;;5060785;28;20045;-69
2022/06/18 07:46:45;;;;;;;5.45;2.40;;;31.60;90.40;;;;;;5078703;28;20499;-69
2022/06/18 07:49:11;;;;;;;8.70;2.33;;;31.90;90.40;;;;;;5060894;28;20114;-69
2022/06/18 07:51:38;;;;;;;7.50;2.22;;;31.80;90.50;;;;;;5089331;28;20471;-69
2022/06/18 07:54:04;;;;;;;7.30;2.30;;;31.60;90.40;;;;;;5080866;28;20052;-69
2022/06/18 07:56:31;;;;;;;6.20;2.10;;;31.70;90.10;;;;;;5095648;28;20059;-70
2022/06/18 07:58:58;;;;;;;8.02;2.22;;;31.70;90.10;;;;;;5085802;28;20052;-69
2022/06/18 08:01:24;;;;;;;5.53;2.25;;;31.40;88.90;;;;;;5068450;28;20123;-70
2022/06/18 08:03:49;;;;;;;6.60;1.95;;;31.10;90.10;;;;;;5077851;28;22019;-67
2022/06/18 08:06:15;;;;;;;5.75;2.42;;;31.20;89.90;;;;;;5076364;28;20040;-69
2022/06/18 08:08:41;;;;;;;6.80;1.90;;;31.20;90.00;;;;;;5098773;28;20073;-70
2022/06/18 08:11:11;;;;;;;5.60;2.10;;;31.20;90.00;;;;;;5080446;28;20048;-69
2022/06/18 08:13:36;;;;;;;6.43;2.50;;;31.00;90.10;;;;;;5076541;28;20102;-69
2022/06/18 08:16:03;;;;;;;8.60;2.80;;;31.20;90.50;;;;;;5085757;28;20418;-70
2022/06/18 08:18:29;;;;;;;7.60;2.40;;;31.00;90.60;;;;;;5098239;28;20113;-69
2022/06/18 08:20:55;;;;;;;6.07;2.28;;;31.00;91.00;;;;;;5080004;28;20460;-70
2022/06/18 08:23:20;;;;;;;5.43;2.08;;;30.90;91.30;;;;;;5098398;28;20048;-70
2022/06/18 08:25:46;;;;;;;4.85;1.90;;;30.70;91.50;;;;;;5098286;28;20040;-70
2022/06/18 08:28:12;;;;;;;10.30;2.67;;;30.70;91.70;;;;;;5079915;28;20059;-69
2022/06/18 08:30:39;;;;;;;8.27;2.35;;;30.40;91.70;;;;;;5088437;28;20048;-69
2022/06/18 08:33:05;;;;;;;6.65;1.65;;;30.70;91.60;;;;;;5060046;28;20057;-69
2022/06/18 08:35:31;;;;;;;6.30;1.80;;;30.60;91.30;;;;;;5060628;28;20353;-70
2022/06/18 08:37:57;;;;;;;5.45;2.00;;;30.70;91.60;;;;;;5059780;28;20048;-70
2022/06/18 08:40:45;;;;;;;11.70;2.80;;;30.90;91.90;;;;;;5077510;28;20037;-70
2022/06/18 08:43:23;;;;;;;4.50;1.88;;;30.80;90.90;;;;;;5060150;28;20049;-70
2022/06/18 08:46:06;;;;;;;9.52;2.42;;;30.80;90.70;;;;;;5089695;28;20068;-70
2022/06/18 08:49:06;;;;;;;4.30;1.33;;;30.60;90.40;;;;;;5088722;28;20044;-70
2022/06/18 08:52:13;;;;;;;10.52;2.22;;;30.30;90.60;;;;;;5064913;28;20036;-69
2022/06/18 08:55:08;;;;;;;3.85;1.48;;;30.40;91.00;;;;;;4995772;28;20046;-69
2022/06/18 08:57:46;;;;;;;6.63;1.60;;;30.50;90.60;;;;;;4996186;28;20062;-69
2022/06/18 09:00:21;;;;;;;3.58;1.85;;;29.90;91.00;;;;;;5056628;28;20147;-70
2022/06/18 09:03:06;;;;;;;7.53;2.28;;;29.70;91.50;;;;;;5059604;28;20080;-69
2022/06/18 09:05:44;;;;;;;7.00;1.80;;;29.10;91.50;;;;;;5059191;28;20056;-70
2022/06/18 09:08:25;;;;;;;4.45;1.45;;;28.80;92.20;;;;;;5060343;28;20346;-69
2022/06/18 09:11:20;;;;;;;5.30;1.77;;;29.00;92.40;;;;;;5059276;28;20464;-69
2022/06/18 09:13:57;;;;;;;5.03;1.73;;;28.80;92.50;;;;;;5077349;28;20052;-69
2022/06/18 09:16:28;;;;;;;3.35;1.55;;;28.60;93.30;;;;;;5059435;28;20041;-69
2022/06/18 09:18:55;;;;;;;3.30;1.30;;;28.60;93.10;;;;;;5076868;28;20044;-69
2022/06/18 09:21:30;;;;;;;4.68;1.48;;;28.40;92.90;;;;;;5084198;28;20071;-69
2022/06/18 09:24:02;;;;;;;3.80;1.20;;;28.30;93.50;;;;;;5097047;28;20040;-69
2022/06/18 09:26:35;;;;;;;4.07;0.83;;;28.10;93.50;;;;;;5097239;28;20044;-69
2022/06/18 09:29:28;;;;;;;2.45;1.00;;;28.20;93.80;;;;;;5097054;28;20052;-69
2022/06/18 09:32:02;;;;;;;3.10;1.00;;;28.00;93.50;;;;;;5061114;28;20051;-69
2022/06/18 09:34:49;;;;;;;3.78;1.20;;;27.90;93.30;;;;;;5078968;28;20444;-69
2022/06/18 09:37:21;;;;;;;4.18;1.08;;;28.10;93.90;;;;;;5074855;28;20084;-69
2022/06/18 09:39:50;;;;;;;;;;;27.90;93.90;;;;;;5077081;28;20053;-69
2022/06/18 09:42:25;;;;;;;2.65;0.90;;;27.40;94.10;;;;;;5076315;28;19931;-69
2022/06/18 09:44:53;;;;;;;3.65;1.08;;;27.00;94.90;;;;;;5059269;28;20098;-69
2022/06/18 09:47:28;;;;;;;2.70;1.40;;;27.10;94.80;;;;;;5076342;28;20132;-69
2022/06/18 09:49:54;;;;;;;3.22;1.45;;;27.20;94.80;;;;;;5076336;28;20372;-69
2022/06/18 09:52:24;;;;;;;2.92;1.15;;;27.20;94.70;;;;;;5075901;28;20123;-69
2022/06/18 09:54:58;;;;;;;3.00;0.93;;;27.30;95.00;;;;;;5076025;28;20094;-69
2022/06/18 09:57:28;;;;;;;3.90;0.98;;;27.50;94.80;;;;;;5058903;28;20235;-69
2022/06/18 10:00:13;;;;;;;7.68;1.08;;;27.20;94.90;;;;;;5070719;28;20070;-69
2022/06/18 10:02:45;;;;;;;1.92;0.70;;;27.20;95.30;;;;;;5058433;28;20044;-69
2022/06/18 10:08:03;;;;;;;2.33;0.68;;;26.50;94.50;;;;;;5058587;28;20435;-69
2022/06/18 10:10:30;;;;;;;3.50;0.95;;;26.10;94.80;;;;;;5091213;28;20384;-69
2022/06/18 10:12:59;;;;;;;3.55;1.10;;;26.10;95.40;;;;;;5058171;28;20041;-69
2022/06/18 10:15:26;;;;;;;1.77;0.80;;;26.30;95.20;;;;;;5061540;28;20048;-68
2022/06/18 10:18:16;;;;;;;1.65;0.68;;;26.50;95.20;;;;;;5075584;28;20044;-68
2022/06/18 10:20:47;;;;;;;5.85;1.23;;;26.60;94.90;;;;;;5057924;28;20067;-70
2022/06/18 10:23:36;;;;;;;2.05;1.15;;;26.60;95.20;;;;;;5075691;28;20091;-70
2022/06/18 10:26:24;;;;;;;2.17;0.90;;;26.50;95.10;;;;;;5078065;28;20365;-70
2022/06/18 10:28:58;;;;;;;3.90;0.70;;;26.50;95.10;;;;;;5076819;28;20054;-70
2022/06/18 10:31:48;;;;;;;4.03;1.17;;;27.00;96.10;;;;;;5065024;28;20048;-70
2022/06/18 10:34:42;;;;;;;4.53;0.85;;;27.10;94.70;;;;;;5065581;28;20494;-70
2022/06/18 10:37:20;;;;;;;2.33;0.90;;;26.90;95.30;;;;;;5075392;28;20066;-70
2022/06/18 10:39:59;;;;;;;2.08;0.80;;;26.70;95.20;;;;;;5075580;28;20037;-70
2022/06/18 10:42:24;;;;;;;1.55;0.88;;;26.60;95.00;;;;;;5057709;28;20056;-70
2022/06/18 10:45:02;;;;;;;2.22;0.98;;;26.30;95.30;;;;;;5066808;28;20059;-70
2022/06/18 10:47:34;;;;;;;2.22;1.10;;;26.20;95.30;;;;;;5068116;28;20051;-69
2022/06/18 10:50:08;;;;;;;4.40;1.02;;;26.40;95.60;;;;;;5067272;28;20042;-68
2022/06/18 10:52:34;;;;;;;1.95;0.75;;;26.80;96.00;;;;;;5074805;28;20079;-67
2022/06/18 10:55:11;;;;;;;2.90;1.23;;;27.00;95.40;;;;;;5057409;28;20473;-68
2022/06/18 10:57:37;;;;;;;4.72;1.17;;;26.60;95.30;;;;;;5075021;28;20423;-68
2022/06/18 11:00:25;;;;;;;5.90;1.13;;;26.40;95.40;;;;;;5063462;28;20040;-68
2022/06/18 11:02:57;;;;;;;2.22;0.90;;;26.40;95.60;;;;;;5074470;28;20080;-69
2022/06/18 11:05:24;;;;;;;2.57;1.00;;;26.60;95.20;;;;;;5057108;28;20041;-67
2022/06/18 11:07:52;;;;;;;7.30;0.90;;;26.40;95.40;;;;;;5056818;28;20334;-68
2022/06/18 11:10:38;;;;;;;2.10;0.80;;;26.20;95.30;;;;;;5074388;28;20080;-68
2022/06/18 11:13:18;;;;;;;0.85;0.70;;;26.20;96.30;;;;;;5074939;28;20037;-68
2022/06/18 11:15:43;;;;;;;1.80;0.90;;;26.60;96.10;;;;;;5076623;28;20039;-68
2022/06/18 11:18:18;;;;;;;2.42;0.90;;;26.90;95.80;;;;;;5065950;28;20048;-69
2022/06/18 11:21:04;;;;;;;2.92;0.88;;;27.40;95.40;;;;;;5082636;28;20048;-69
2022/06/18 11:23:34;;;;;;;1.58;0.75;;;27.40;94.80;;;;;;5064434;28;20032;-69
2022/06/18 11:26:00;;;;;;;2.40;0.73;;;27.40;94.80;;;;;;5084059;28;20063;-70
2022/06/18 11:28:32;;;;;;;1.00;0.68;;;27.70;95.00;;;;;;5082483;28;20052;-68
2022/06/18 11:30:59;;;;;;;4.47;1.17;;;27.80;94.80;;;;;;5065097;28;20037;-69
2022/06/18 11:33:37;;;;;;;3.15;0.95;;;28.10;94.50;;;;;;5073770;28;20197;-70
2022/06/18 11:36:12;;;;;;;10.35;1.38;;;28.40;95.40;;;;;;5062210;28;20044;-69
2022/06/18 11:38:39;;;;;;;1.27;0.70;;;28.70;95.00;;;;;;5066413;28;20080;-70
2022/06/18 11:41:18;;;;;;;2.78;0.82;;;28.80;93.90;;;;;;5074181;28;20056;-69
2022/06/18 11:44:00;;;;;;;1.70;0.70;;;28.50;94.00;;;;;;5058451;28;20371;-69
2022/06/18 11:46:48;;;;;;;2.47;0.90;;;28.60;93.80;;;;;;5074067;28;20051;-68
2022/06/18 11:49:40;;;;;;;3.35;1.00;;;28.50;93.80;;;;;;5114516;28;20052;-68
2022/06/18 11:52:29;;;;;;;2.57;0.97;;;28.20;93.90;;;;;;5089028;28;20048;-69
2022/06/18 11:55:15;;;;;;;1.60;0.80;;;27.70;94.20;;;;;;5040224;28;20384;-69
2022/06/18 11:58:01;;;;;;;2.08;0.73;;;27.30;94.70;;;;;;5074276;28;20508;-69
2022/06/18 12:00:46;;;;;;;2.13;0.50;;;27.20;94.70;;;;;;5081749;28;20432;-69
2022/06/18 12:03:35;;;;;;;3.20;1.05;;;27.50;95.50;;;;;;5089862;28;20063;-68
2022/06/18 12:06:03;;;;;;;1.88;0.70;;;27.90;95.10;;;;;;5063839;28;20036;-69
2022/06/18 12:08:29;;;;;;;2.10;0.90;;;28.40;94.60;;;;;;5076624;28;20044;-69
2022/06/18 12:11:12;;;;;;;3.90;0.68;;;28.80;94.40;;;;;;5073027;28;20055;-69
2022/06/18 12:13:43;;;;;;;3.00;0.60;;;29.00;93.90;;;;;;5056968;28;20063;-68
2022/06/18 12:16:08;;;;;;;2.13;0.68;;;29.00;93.80;;;;;;5064346;28;20044;-69
2022/06/18 12:18:46;;;;;;;2.03;0.60;;;29.10;93.70;;;;;;5083175;28;20113;-68
2022/06/18 12:21:48;;;;;;;1.35;0.57;;;29.10;93.60;;;;;;5061927;28;20056;-68
2022/06/18 12:24:37;;;;;;;0.75;0.52;;;29.30;93.60;;;;;;5056800;28;20048;-68
2022/06/18 12:27:22;;;;;;;0.77;0.50;;;29.10;92.90;;;;;;5065021;28;20059;-68
2022/06/18 12:29:48;;;;;;;2.03;0.70;;;29.20;94.10;;;;;;5077383;28;20044;-68
2022/06/18 12:32:30;;;;;;;1.85;0.85;;;29.20;93.60;;;;;;5060250;28;20097;-68
2022/06/18 12:35:20;;;;;;;1.85;0.57;;;29.10;93.20;;;;;;5059965;28;20055;-68
2022/06/18 12:38:42;;;;;;;1.83;0.63;;;29.10;93.20;;;;;;5076675;28;20083;-68
2022/06/18 12:41:38;;;;;;;0.95;0.50;;;29.00;93.20;;;;;;4987508;28;20050;-67
2022/06/18 12:44:23;;;;;;;8.15;0.93;;;28.40;94.10;;;;;;4980089;28;20053;-68
2022/06/18 12:47:13;;;;;;;2.67;0.80;;;28.00;93.50;;;;;;5061324;28;20071;-68
2022/06/18 12:50:02;;;;;;;1.10;0.40;;;27.20;94.60;;;;;;5078554;28;20361;-68
2022/06/18 12:52:38;;;;;;;3.83;0.93;;;26.90;94.70;;;;;;5086830;28;20519;-68
2022/06/18 12:55:25;;;;;;;1.05;0.70;;;26.50;94.80;;;;;;5059387;28;20048;-68
2022/06/18 12:57:57;;;;;;;1.88;0.93;;;26.60;95.00;;;;;;5059452;28;20067;-69
2022/06/18 13:00:26;;;;;;;;;;;26.70;94.60;;;;;;5077992;28;20361;-68
2022/06/18 13:02:52;;;;;;;1.80;0.90;;;26.80;94.90;;;;;;5059744;28;19931;-68
2022/06/18 13:05:29;;;;;;;2.78;0.75;;;26.80;94.20;;;;;;5076183;28;20040;-67
2022/06/18 13:08:16;;;;;;;3.75;0.90;;;26.90;94.20;;;;;;5085769;28;20044;-68
2022/06/18 13:10:52;;;;;;;10.13;1.35;;;26.70;94.20;;;;;;5070208;28;20051;-67
2022/06/18 13:13:54;;;;;;;3.08;0.90;;;26.40;94.20;;;;;;5068063;28;20037;-68
2022/06/18 13:16:26;;;;;;;3.70;1.17;;;26.00;94.70;;;;;;5023648;28;20455;-68
2022/06/18 13:18:57;;;;;;;3.60;1.02;;;25.90;95.20;;;;;;5066378;28;20127;-68
2022/06/18 13:21:23;;;;;;;3.17;1.13;;;26.00;95.00;;;;;;5079697;28;20052;-69
2022/06/18 13:29:58;;;;;;;2.88;0.80;;;25.70;95.60;;;;;;5078695;28;20060;-68